Time;durP1;ratioP1;P1;durP2;ratioP2;P2;SDS_P1;SDS_P2;PMS_P1;PMS_P2;Temp;Humidity;BMP_temperature;BMP_pressure;BME280_temperature;BME280_humidity;BME280_pressure;Samples;Min_cycle;Max_cycle;Signal;HPM_P1;HPM_P2
2021/07/13 00:02:20;;;;;;;16.55;11.77;;;;;;;19.22;96.22;100794.28;5070847;28;20107;-79
2021/07/13 00:04:46;;;;;;;15.52;11.13;;;;;;;19.16;95.69;100786.66;5067699;28;20047;-79
2021/07/13 00:07:11;;;;;;;15.82;11.55;;;;;;;19.06;95.97;100787.53;5059426;28;20099;-76
2021/07/13 00:09:36;;;;;;;14.70;10.10;;;;;;;19.01;95.95;100789.84;5068264;28;20476;-77
2021/07/13 00:12:02;;;;;;;13.23;10.50;;;;;;;18.92;96.73;100782.53;5051299;28;20482;-75
2021/07/13 00:14:28;;;;;;;14.38;10.70;;;;;;;18.89;96.89;100794.56;5050917;28;20462;-79
2021/07/13 00:16:53;;;;;;;13.30;11.05;;;;;;;18.85;96.38;100797.72;5050887;28;20021;-77
2021/07/13 00:19:19;;;;;;;15.60;11.35;;;;;;;18.83;96.68;100797.00;5068952;28;20031;-79
2021/07/13 00:21:44;;;;;;;16.25;12.00;;;;;;;18.76;97.27;100788.50;5071074;28;20036;-78
2021/07/13 00:24:10;;;;;;;15.32;12.00;;;;;;;18.75;97.84;100799.50;5041743;28;20082;-79
2021/07/13 00:26:36;;;;;;;14.80;11.63;;;;;;;18.68;97.84;100796.50;5044460;28;20024;-79
2021/07/13 00:29:08;;;;;;;16.15;11.40;;;;;;;18.75;98.21;100807.69;5074204;28;20515;-79
2021/07/13 00:31:34;;;;;;;15.10;11.18;;;;;;;18.76;98.30;100795.81;5056430;28;20032;-79
2021/07/13 00:33:59;;;;;;;15.57;11.98;;;;;;;18.76;98.32;100804.81;5066956;28;20033;-79
2021/07/13 00:36:25;;;;;;;15.07;11.25;;;;;;;18.81;98.17;100807.16;5074642;28;20442;-79
2021/07/13 00:38:51;;;;;;;22.80;12.80;;;;;;;18.87;98.49;100807.44;5064667;28;20531;-79
2021/07/13 00:41:16;;;;;;;20.23;12.15;;;;;;;18.91;98.41;100803.44;5070937;28;20131;-80
2021/07/13 00:43:41;;;;;;;18.83;12.93;;;;;;;19.01;98.62;100813.47;5070327;28;20021;-77
2021/07/13 00:46:07;;;;;;;17.50;12.80;;;;;;;19.05;98.46;100809.44;5064412;28;20432;-78
2021/07/13 00:48:32;;;;;;;20.73;14.50;;;;;;;19.07;99.22;100804.72;5061458;28;20043;-77
2021/07/13 00:50:59;;;;;;;21.02;13.52;;;;;;;19.11;99.11;100804.28;5065854;28;20028;-78
2021/07/13 00:53:25;;;;;;;17.95;13.13;;;;;;;19.17;98.85;100807.44;5068076;28;20028;-75
2021/07/13 00:55:50;;;;;;;14.80;13.07;;;;;;;19.19;98.75;100805.44;5068318;28;20028;-78
2021/07/13 00:58:15;;;;;;;19.70;13.88;;;;;;;19.18;98.90;100809.19;5055523;28;20464;-75
2021/07/13 01:00:41;;;;;;;18.42;14.48;;;;;;;19.18;99.29;100803.72;5062561;28;20016;-78
2021/07/13 01:03:06;;;;;;;19.00;13.77;;;;;;;19.24;98.85;100806.75;5066902;28;20017;-76
2021/07/13 01:05:36;;;;;;;15.82;12.57;;;;;;;19.23;98.96;100806.88;5054135;28;20021;-75
2021/07/13 01:08:13;;;;;;;17.27;13.50;;;;;;;19.25;98.98;100807.59;5071863;28;20051;-77
2021/07/13 01:10:52;;;;;;;21.17;13.93;;;;;;;19.28;98.52;100808.16;5066705;28;20025;-76
2021/07/13 01:13:38;;;;;;;20.50;13.32;;;;;;;19.32;99.07;100801.41;5066652;28;20065;-77
2021/07/13 01:16:11;;;;;;;18.98;13.52;;;;;;;19.28;99.00;100797.25;5056113;28;20086;-75
2021/07/13 01:18:43;;;;;;;17.80;15.15;;;;;;;19.28;99.28;100788.22;5054047;28;20092;-76
2021/07/13 01:21:37;;;;;;;18.50;12.77;;;;;;;19.36;98.94;100795.69;5056677;28;20383;-75
2021/07/13 01:24:21;;;;;;;19.40;14.45;;;;;;;19.33;99.41;100786.81;5073730;28;20140;-77
2021/07/13 01:27:05;;;;;;;22.17;13.43;;;;;;;19.35;99.03;100783.91;5067734;28;20017;-77
2021/07/13 01:29:31;;;;;;;17.50;13.68;;;;;;;19.37;98.81;100786.50;5064926;28;20147;-75
2021/07/13 01:31:57;;;;;;;15.93;12.80;;;;;;;19.36;98.97;100785.66;5070048;28;20073;-78
2021/07/13 01:34:26;;;;;;;16.05;13.60;;;;;;;19.36;98.95;100780.19;5065487;28;20033;-77
2021/07/13 01:36:56;;;;;;;21.08;14.77;;;;;;;19.37;99.48;100784.63;5037775;28;20460;-77
2021/07/13 01:39:25;;;;;;;23.15;13.68;;;;;;;19.38;98.38;100780.91;5064932;28;20041;-78
2021/07/13 01:41:53;;;;;;;20.70;14.10;;;;;;;19.37;98.74;100779.19;5073566;28;20113;-77
2021/07/13 01:44:21;;;;;;;18.17;12.85;;;;;;;19.37;98.78;100771.00;5073208;28;20105;-75
2021/07/13 01:46:49;;;;;;;16.80;12.82;;;;;;;19.40;98.79;100778.03;5069886;28;20021;-77
2021/07/13 01:49:19;;;;;;;17.23;13.77;;;;;;;19.42;98.70;100768.69;5053548;28;20070;-76
2021/07/13 01:51:47;;;;;;;18.05;13.15;;;;;;;19.38;98.59;100766.41;5051331;28;20020;-78
2021/07/13 01:54:14;;;;;;;18.58;14.00;;;;;;;19.31;98.82;100753.41;5072969;28;20024;-77
2021/07/13 01:56:40;;;;;;;19.33;13.77;;;;;;;19.32;98.59;100751.53;5055994;28;20456;-77
2021/07/13 01:59:06;;;;;;;15.82;13.77;;;;;;;19.21;98.94;100738.06;5072964;28;20062;-78
2021/07/13 02:01:33;;;;;;;16.88;13.13;;;;;;;19.26;99.11;100744.81;5069645;28;20083;-79
2021/07/13 02:04:00;;;;;;;15.35;13.38;;;;;;;19.24;99.25;100740.47;5057111;28;20504;-77
2021/07/13 02:06:26;;;;;;;16.77;13.63;;;;;;;19.13;99.30;100731.47;5071611;28;20033;-77
2021/07/13 02:08:53;;;;;;;18.85;14.10;;;;;;;19.07;99.23;100725.75;5036347;28;20017;-78
2021/07/13 02:11:19;;;;;;;21.15;14.80;;;;;;;19.06;99.85;100733.06;5052978;28;20028;-78
2021/07/13 02:13:45;;;;;;;17.15;13.30;;;;;;;18.96;99.88;100729.50;5053107;28;20127;-78
2021/07/13 02:16:10;;;;;;;17.90;13.85;;;;;;;18.98;100.00;100740.22;5063917;28;20362;-78
2021/07/13 02:18:36;;;;;;;16.63;13.48;;;;;;;18.92;100.00;100737.09;5065347;28;20025;-78
2021/07/13 02:21:03;;;;;;;17.02;13.90;;;;;;;18.88;100.00;100737.53;5052992;28;20495;-79
2021/07/13 02:23:28;;;;;;;19.55;14.07;;;;;;;18.83;100.00;100743.41;5069860;28;20086;-78
2021/07/13 02:25:57;;;;;;;20.27;13.57;;;;;;;18.77;100.00;100740.38;5071287;28;20107;-77
2021/07/13 02:28:36;;;;;;;15.85;13.00;;;;;;;18.68;100.00;100739.34;5055804;28;20024;-78
2021/07/13 02:31:05;;;;;;;15.82;12.85;;;;;;;18.62;100.00;100743.50;5072549;28;20032;-78
2021/07/13 02:33:40;;;;;;;14.88;13.27;;;;;;;18.53;100.00;100736.19;5069301;28;20021;-78
2021/07/13 02:36:09;;;;;;;17.27;13.60;;;;;;;18.53;100.00;100738.91;5036128;28;20488;-78
2021/07/13 02:38:34;;;;;;;17.40;14.55;;;;;;;18.53;100.00;100735.34;5072370;28;20024;-78
2021/07/13 02:41:01;;;;;;;16.23;12.85;;;;;;;18.48;100.00;100730.31;5072216;28;20080;-79
2021/07/13 02:43:27;;;;;;;19.27;14.55;;;;;;;18.44;100.00;100726.16;5071605;28;20024;-78
2021/07/13 02:45:53;;;;;;;23.98;15.43;;;;;;;18.39;100.00;100714.84;5056377;28;20464;-79
2021/07/13 02:48:19;;;;;;;19.77;16.08;;;;;;;18.52;100.00;100734.47;5067851;28;20021;-76
2021/07/13 02:50:44;;;;;;;23.90;18.00;;;;;;;18.47;100.00;100723.13;5051661;28;20025;-78
2021/07/13 02:53:11;;;;;;;20.30;15.95;;;;;;;18.50;100.00;100740.06;5046410;28;20037;-78
2021/07/13 02:55:36;;;;;;;18.73;16.50;;;;;;;18.45;100.00;100730.56;5053048;28;20032;-78
2021/07/13 02:58:02;;;;;;;19.33;15.93;;;;;;;18.44;100.00;100734.31;5064427;28;20042;-78
2021/07/13 03:00:28;;;;;;;23.20;19.27;;;;;;;18.39;100.00;100729.28;5071015;28;20024;-79
2021/07/13 03:02:54;;;;;;;25.58;18.30;;;;;;;18.43;100.00;100729.88;5071815;28;20555;-76
2021/07/13 03:05:22;;;;;;;24.77;18.42;;;;;;;18.38;100.00;100724.88;5054726;28;20438;-79
2021/07/13 03:07:48;;;;;;;21.42;17.48;;;;;;;18.30;100.00;100719.25;5069924;28;20062;-76
2021/07/13 03:10:17;;;;;;;19.58;17.42;;;;;;;18.35;100.00;100733.28;5052061;28;20025;-77
2021/07/13 03:12:43;;;;;;;23.55;17.58;;;;;;;18.33;100.00;100738.00;5070294;28;20432;-77
2021/07/13 03:15:09;;;;;;;22.70;17.67;;;;;;;18.30;100.00;100733.72;5071910;28;20055;-78
2021/07/13 03:17:34;;;;;;;23.75;18.38;;;;;;;18.31;100.00;100731.88;5068480;28;20025;-78
2021/07/13 03:20:00;;;;;;;22.52;18.35;;;;;;;18.30;100.00;100738.28;5064889;28;20021;-79
2021/07/13 03:22:31;;;;;;;31.80;20.10;;;;;;;18.35;100.00;100748.75;5071810;28;20078;-76
2021/07/13 03:24:58;;;;;;;26.33;18.73;;;;;;;18.30;100.00;100735.56;5068226;28;20506;-78
2021/07/13 03:27:24;;;;;;;22.67;18.45;;;;;;;18.27;100.00;100734.00;5034929;28;20064;-76
2021/07/13 03:29:51;;;;;;;26.80;19.45;;;;;;;18.33;100.00;100748.03;5054334;28;20064;-78
2021/07/13 03:32:17;;;;;;;22.58;16.75;;;;;;;18.26;100.00;100739.56;5059145;28;20028;-78
2021/07/13 03:34:44;;;;;;;24.10;17.83;;;;;;;18.28;100.00;100741.13;5063401;28;20086;-76
2021/07/13 03:37:09;;;;;;;;;;;;;;;18.30;100.00;100741.88;5070205;28;20048;-79
2021/07/13 03:39:35;;;;;;;25.10;18.30;;;;;;;18.29;100.00;100732.00;5068150;28;19978;-76
2021/07/13 03:42:01;;;;;;;23.65;18.02;;;;;;;18.30;100.00;100733.72;5050851;28;20281;-78
2021/07/13 03:44:26;;;;;;;23.77;20.83;;;;;;;18.34;100.00;100734.31;5040370;28;20037;-79
2021/07/13 03:46:51;;;;;;;27.80;21.33;;;;;;;18.34;100.00;100738.88;5059960;28;20021;-78
2021/07/13 03:49:17;;;;;;;28.42;21.33;;;;;;;18.35;100.00;100751.47;5051536;28;20079;-78
2021/07/13 03:51:46;;;;;;;29.38;21.70;;;;;;;18.44;100.00;100745.19;5051485;28;20035;-77
2021/07/13 03:54:14;;;;;;;26.13;20.10;;;;;;;18.47;100.00;100740.34;5051622;28;20029;-79
2021/07/13 03:56:40;;;;;;;23.83;19.92;;;;;;;18.46;100.00;100735.03;5051757;28;20383;-77
2021/07/13 03:59:06;;;;;;;28.25;21.63;;;;;;;18.59;100.00;100748.34;5051928;28;20071;-76
2021/07/13 04:01:32;;;;;;;26.20;20.38;;;;;;;18.59;100.00;100743.78;5064232;28;20032;-75
2021/07/13 04:03:58;;;;;;;30.60;21.33;;;;;;;18.65;100.00;100750.50;5092370;28;20024;-79
2021/07/13 04:06:23;;;;;;;25.67;19.70;;;;;;;18.67;100.00;100745.78;5075742;28;20436;-76
2021/07/13 04:08:49;;;;;;;28.70;21.02;;;;;;;18.83;100.00;100748.00;5075405;28;20483;-76
2021/07/13 04:11:14;;;;;;;29.75;21.05;;;;;;;18.88;100.00;100743.81;5076756;28;20086;-76
2021/07/13 04:13:39;;;;;;;27.10;20.20;;;;;;;18.94;100.00;100750.56;5075169;28;20033;-76
2021/07/13 04:16:05;;;;;;;29.63;22.33;;;;;;;18.94;100.00;100753.28;5076637;28;20025;-78
2021/07/13 04:18:30;;;;;;;24.88;20.95;;;;;;;19.04;100.00;100751.41;5058650;28;20150;-75
2021/07/13 04:20:55;;;;;;;24.05;19.40;;;;;;;19.17;100.00;100755.69;5074950;28;20074;-78
2021/07/13 04:23:21;;;;;;;25.98;20.05;;;;;;;19.12;100.00;100751.56;5075114;28;20056;-75
2021/07/13 04:25:47;;;;;;;28.73;21.58;;;;;;;19.17;100.00;100747.53;5075386;28;20016;-79
2021/07/13 04:28:12;;;;;;;28.45;21.30;;;;;;;19.10;100.00;100739.94;5075088;28;20498;-79
2021/07/13 04:30:37;;;;;;;24.73;19.63;;;;;;;19.17;100.00;100742.97;5076308;28;20032;-75
2021/07/13 04:33:03;;;;;;;34.08;20.73;;;;;;;19.26;100.00;100754.81;5075824;28;20037;-76
2021/07/13 04:35:29;;;;;;;25.33;19.48;;;;;;;19.30;100.00;100753.53;5075037;28;20127;-75
2021/07/13 04:37:54;;;;;;;29.38;20.27;;;;;;;19.32;99.79;100743.34;5075063;28;20107;-76
2021/07/13 04:40:19;;;;;;;30.45;23.90;;;;;;;19.32;99.73;100756.97;5074528;28;20049;-75
2021/07/13 04:42:45;;;;;;;23.58;19.58;;;;;;;19.40;99.28;100748.06;5074976;28;20040;-79
2021/07/13 04:45:10;;;;;;;24.90;19.80;;;;;;;19.48;98.98;100740.03;5074819;28;20033;-77
2021/07/13 04:47:36;;;;;;;29.00;19.95;;;;;;;19.59;98.75;100753.47;5074675;28;20490;-77
2021/07/13 04:50:03;;;;;;;23.05;18.83;;;;;;;19.73;97.44;100742.13;5074512;28;20119;-79
2021/07/13 04:52:28;;;;;;;27.83;20.83;;;;;;;19.82;97.19;100744.94;5067075;28;20400;-79
2021/07/13 04:54:53;;;;;;;24.20;18.42;;;;;;;19.89;96.81;100746.94;5037922;28;20040;-79
2021/07/13 04:57:19;;;;;;;22.23;18.90;;;;;;;19.91;96.11;100744.94;5037863;28;20040;-78
2021/07/13 04:59:44;;;;;;;26.17;18.73;;;;;;;19.99;96.25;100748.78;5037627;28;20049;-76
2021/07/13 05:02:09;;;;;;;24.00;17.27;;;;;;;20.05;95.29;100753.59;5067549;28;20021;-80
2021/07/13 05:04:35;;;;;;;21.65;18.35;;;;;;;20.07;95.29;100754.31;5074314;28;20030;-79
2021/07/13 05:07:00;;;;;;;25.85;17.75;;;;;;;20.27;94.51;100758.66;5074423;28;20025;-78
2021/07/13 05:09:26;;;;;;;22.52;17.58;;;;;;;20.25;94.51;100757.94;5074252;28;20028;-80
2021/07/13 05:11:51;;;;;;;21.48;18.33;;;;;;;20.24;94.06;100766.28;5074382;28;20025;-76
2021/07/13 05:14:17;;;;;;;20.60;16.90;;;;;;;20.15;94.64;100758.00;5071777;28;20028;-78
2021/07/13 05:16:42;;;;;;;25.13;17.05;;;;;;;20.30;94.12;100768.41;5054311;28;20112;-76
2021/07/13 05:19:09;;;;;;;21.48;16.88;;;;;;;20.39;93.86;100764.75;5053928;28;20120;-79
2021/07/13 05:21:35;;;;;;;23.13;16.45;;;;;;;20.46;93.59;100774.06;5054306;28;20025;-78
2021/07/13 05:24:00;;;;;;;19.55;15.95;;;;;;;20.55;92.58;100758.63;5054885;28;20032;-76
2021/07/13 05:26:25;;;;;;;21.38;16.75;;;;;;;20.62;91.78;100767.94;5051356;28;20028;-76
2021/07/13 05:28:51;;;;;;;18.77;15.73;;;;;;;20.64;92.24;100770.53;5074742;28;20054;-80
2021/07/13 05:31:16;;;;;;;21.42;17.02;;;;;;;20.70;92.16;100754.41;5073365;28;20021;-79
2021/07/13 05:33:42;;;;;;;19.20;15.32;;;;;;;20.85;91.09;100762.91;5073412;28;20039;-76
2021/07/13 05:36:07;;;;;;;19.77;15.70;;;;;;;20.95;90.59;100760.94;5073932;28;20051;-76
2021/07/13 05:38:32;;;;;;;21.23;17.70;;;;;;;20.96;90.31;100759.09;5073916;28;20375;-76
2021/07/13 05:40:58;;;;;;;20.92;16.23;;;;;;;21.22;88.87;100757.25;5073408;28;20456;-76
2021/07/13 05:43:23;;;;;;;18.88;15.68;;;;;;;21.62;88.50;100764.03;5073539;28;20067;-76
2021/07/13 05:45:48;;;;;;;23.80;15.88;;;;;;;21.85;86.48;100766.25;5075218;28;20379;-77
2021/07/13 05:48:14;;;;;;;23.42;16.10;;;;;;;22.00;84.72;100761.00;5074485;28;20462;-77
2021/07/13 05:50:39;;;;;;;18.80;15.83;;;;;;;22.44;82.37;100760.88;5073705;28;20467;-76
2021/07/13 05:53:04;;;;;;;19.43;15.43;;;;;;;22.78;80.49;100769.00;5055847;28;20020;-77
2021/07/13 05:55:30;;;;;;;17.87;14.37;;;;;;;23.08;79.15;100758.44;5072784;28;20028;-78
2021/07/13 05:57:55;;;;;;;18.52;15.18;;;;;;;23.37;77.76;100760.69;5073009;28;20021;-77
2021/07/13 06:00:21;;;;;;;15.32;12.82;;;;;;;24.03;75.28;100760.56;5072982;28;20113;-80
2021/07/13 06:02:46;;;;;;;14.80;13.07;;;;;;;24.63;72.27;100759.09;5056216;28;20016;-78
2021/07/13 06:05:11;;;;;;;15.83;12.77;;;;;;;24.55;71.47;100755.34;5072968;28;20487;-80
2021/07/13 06:07:41;;;;;;;16.63;12.07;;;;;;;24.78;71.49;100751.75;5073084;28;20017;-79
2021/07/13 06:10:07;;;;;;;14.98;12.40;;;;;;;24.50;71.47;100755.03;5071016;28;20111;-77
2021/07/13 06:12:32;;;;;;;15.03;12.10;;;;;;;24.69;70.34;100747.34;5036258;28;20059;-79
2021/07/13 06:14:58;;;;;;;16.20;11.90;;;;;;;24.82;71.11;100747.63;5053929;28;20037;-79
2021/07/13 06:17:23;;;;;;;17.90;11.43;;;;;;;24.65;70.15;100754.28;5035936;28;20025;-78
2021/07/13 06:19:49;;;;;;;17.57;13.27;;;;;;;24.45;70.38;100749.19;5052909;28;20074;-78
2021/07/13 06:22:14;;;;;;;18.20;11.13;;;;;;;24.81;70.54;100751.41;5052246;28;20087;-78
2021/07/13 06:24:40;;;;;;;14.37;12.23;;;;;;;25.05;69.44;100749.50;5052640;28;20028;-80
2021/07/13 06:27:05;;;;;;;18.17;11.43;;;;;;;25.45;68.06;100752.97;5052794;28;20056;-79
2021/07/13 06:29:30;;;;;;;15.07;9.73;;;;;;;26.01;64.44;100742.41;5052972;28;20052;-76
2021/07/13 06:31:56;;;;;;;13.20;10.73;;;;;;;26.00;64.18;100752.56;5052647;28;20353;-81
2021/07/13 06:34:21;;;;;;;12.57;10.50;;;;;;;26.58;62.77;100749.94;5053617;28;20028;-76
2021/07/13 06:36:47;;;;;;;13.10;10.33;;;;;;;26.23;62.78;100746.94;5062146;28;20024;-81
2021/07/13 06:39:13;;;;;;;17.27;10.27;;;;;;;26.65;61.19;100745.34;5054518;28;20074;-80
2021/07/13 06:41:38;;;;;;;14.40;10.87;;;;;;;26.44;60.91;100751.63;5051486;28;20434;-76
2021/07/13 06:44:04;;;;;;;14.03;10.53;;;;;;;27.37;58.46;100750.94;5070328;28;20032;-80
2021/07/13 06:46:29;;;;;;;14.93;10.50;;;;;;;28.95;53.45;100741.75;5072241;28;20039;-77
2021/07/13 06:48:54;;;;;;;13.40;10.00;;;;;;;30.38;47.93;100741.19;5072174;28;20052;-80
2021/07/13 06:51:20;;;;;;;12.83;9.60;;;;;;;32.11;43.41;100740.91;5072188;28;20038;-75
2021/07/13 06:53:45;;;;;;;10.87;9.17;;;;;;;32.04;43.75;100741.84;5053878;28;20028;-80
2021/07/13 06:56:10;;;;;;;9.77;8.27;;;;;;;33.30;40.96;100727.25;5059577;28;20051;-77
2021/07/13 06:58:36;;;;;;;12.03;9.90;;;;;;;33.48;39.41;100729.06;5051326;28;20036;-79
2021/07/13 07:01:01;;;;;;;13.23;7.80;;;;;;;34.23;38.14;100736.66;5064399;28;20040;-77
2021/07/13 07:03:26;;;;;;;14.23;8.70;;;;;;;34.40;37.51;100739.53;5034510;28;20444;-81
2021/07/13 07:05:52;;;;;;;11.00;8.70;;;;;;;33.62;37.33;100727.78;5069962;28;20070;-81
2021/07/13 07:08:17;;;;;;;11.20;8.83;;;;;;;32.64;39.73;100734.69;5070509;28;20519;-81
2021/07/13 07:10:42;;;;;;;10.10;8.57;;;;;;;34.72;36.60;100727.88;5066783;28;20108;-80
2021/07/13 07:13:08;;;;;;;11.17;8.63;;;;;;;35.19;35.90;100736.03;5070251;28;20111;-77
2021/07/13 07:15:33;;;;;;;11.97;8.87;;;;;;;34.84;35.16;100733.44;5071467;28;20348;-75
2021/07/13 07:17:59;;;;;;;11.33;7.83;;;;;;;34.45;35.73;100731.28;5071873;28;20052;-80
2021/07/13 07:20:26;;;;;;;9.93;7.57;;;;;;;35.41;34.64;100734.16;5063777;28;20426;-77
2021/07/13 07:22:53;;;;;;;10.13;7.32;;;;;;;36.09;32.79;100734.06;5054401;28;20493;-79
2021/07/13 07:25:19;;;;;;;11.40;7.68;;;;;;;36.46;31.87;100733.38;5050012;28;20048;-80
2021/07/13 07:27:45;;;;;;;13.90;7.97;;;;;;;36.01;32.24;100737.28;5043460;28;20055;-79
2021/07/13 07:30:12;;;;;;;10.40;8.90;;;;;;;36.99;29.79;100731.72;5060659;28;20017;-79
2021/07/13 07:32:39;;;;;;;9.43;7.88;;;;;;;37.34;30.33;100730.38;5051588;28;20529;-78
2021/07/13 07:35:06;;;;;;;9.57;7.97;;;;;;;37.57;29.48;100736.75;5056483;28;20039;-79
2021/07/13 07:37:32;;;;;;;10.07;7.90;;;;;;;35.78;31.96;100743.97;5075697;28;20039;-77
2021/07/13 07:39:57;;;;;;;7.45;6.70;;;;;;;36.86;31.75;100738.63;5055774;28;20032;-77
2021/07/13 07:42:23;;;;;;;9.03;7.33;;;;;;;38.88;27.86;100739.59;5068443;28;20028;-78
2021/07/13 07:44:48;;;;;;;8.40;7.40;;;;;;;39.09;26.82;100730.06;5072915;28;20046;-76
2021/07/13 07:47:13;;;;;;;11.27;8.30;;;;;;;37.09;28.97;100728.22;5053480;28;20678;-78
2021/07/13 07:49:39;;;;;;;9.63;8.03;;;;;;;35.61;31.42;100742.03;5074589;28;20357;-76
2021/07/13 07:52:04;;;;;;;8.47;7.33;;;;;;;37.80;28.88;100729.88;5077049;28;20056;-76
2021/07/13 07:54:30;;;;;;;10.80;6.85;;;;;;;39.44;26.67;100725.59;5067787;28;20032;-76
2021/07/13 07:56:55;;;;;;;9.95;7.82;;;;;;;39.99;25.24;100737.03;5065646;28;20539;-76
2021/07/13 07:59:21;;;;;;;;;;;;;;;40.08;25.77;100734.44;5050288;28;20036;-81
2021/07/13 08:01:47;;;;;;;8.30;7.25;;;;;;;38.47;26.67;100736.69;5041690;28;19938;-81
2021/07/13 08:04:12;;;;;;;18.98;7.45;;;;;;;39.32;25.39;100727.81;5071585;28;20079;-76
2021/07/13 08:06:37;;;;;;;;;;;;;;;40.15;24.38;100724.56;5063633;28;20070;-75
2021/07/13 08:09:03;;;;;;;9.30;7.43;;;;;;;38.79;26.15;100722.44;5072266;28;19970;-78
2021/07/13 08:11:28;;;;;;;;;;;;;;;41.58;23.30;100719.94;5072876;28;20040;-78
2021/07/13 08:13:55;;;;;;;8.40;6.50;;;;;;;42.79;21.87;100714.19;5091899;28;20359;-78
2021/07/13 08:16:20;;;;;;;10.02;7.25;;;;;;;43.63;19.63;100714.19;5052531;28;20036;-79
2021/07/13 08:18:46;;;;;;;9.77;6.60;;;;;;;44.42;19.85;100710.28;5055487;28;20091;-74
2021/07/13 08:21:11;;;;;;;9.55;6.88;;;;;;;45.26;18.84;100710.84;5055031;28;20303;-74
2021/07/13 08:23:36;;;;;;;9.70;6.72;;;;;;;45.44;19.18;100706.09;5055070;28;20027;-77
2021/07/13 08:26:02;;;;;;;10.63;6.20;;;;;;;45.57;18.17;100708.00;5057345;28;20028;-79
2021/07/13 08:28:27;;;;;;;8.30;7.13;;;;;;;41.66;21.31;100703.50;5058178;28;20297;-74
2021/07/13 08:30:52;;;;;;;6.90;6.17;;;;;;;42.58;20.94;100708.84;5076079;28;20468;-74
2021/07/13 08:33:18;;;;;;;8.67;6.47;;;;;;;42.74;20.38;100703.81;5057130;28;20281;-78
2021/07/13 08:35:43;;;;;;;7.97;7.17;;;;;;;41.05;22.70;100707.72;5071033;28;20262;-74
2021/07/13 08:38:08;;;;;;;13.18;6.97;;;;;;;40.89;22.70;100712.63;5057309;28;20327;-77
2021/07/13 08:40:34;;;;;;;11.65;6.47;;;;;;;39.47;25.07;100701.69;5070094;28;20453;-75
2021/07/13 08:42:59;;;;;;;10.02;7.28;;;;;;;37.13;28.33;100708.91;5060872;28;20056;-75
2021/07/13 08:45:24;;;;;;;;;;;;;;;37.22;27.46;100704.50;5054565;28;20029;-75
2021/07/13 08:47:50;;;;;;;10.00;7.90;;;;;;;36.10;29.96;100707.81;5054534;28;20356;-74
2021/07/13 08:50:17;;;;;;;9.77;7.10;;;;;;;38.96;25.24;100707.31;5073573;28;20032;-75
2021/07/13 08:52:43;;;;;;;7.07;6.38;;;;;;;39.81;25.09;100699.09;5071713;28;20119;-75
2021/07/13 08:55:08;;;;;;;;;;;;;;;43.12;20.82;100689.63;5074579;28;20024;-76
2021/07/13 08:57:37;;;;;;;9.05;6.68;;;;;;;44.59;18.72;100695.47;5052762;28;19916;-75
2021/07/13 09:00:05;;;;;;;7.50;6.53;;;;;;;44.80;17.70;100701.47;5060811;28;20039;-76
2021/07/13 09:02:30;;;;;;;8.32;6.38;;;;;;;41.91;22.44;100694.75;5048936;28;20029;-78
2021/07/13 09:04:56;;;;;;;8.57;6.50;;;;;;;43.31;20.42;100694.41;5055867;28;20029;-79
2021/07/13 09:07:21;;;;;;;9.43;6.67;;;;;;;44.12;17.95;100691.97;5054096;28;20274;-78
